Time,TemperatureF,DewpointF,PressureIn,WindDirection,WindDirectionDegrees,WindSpeedMPH,WindSpeedGustMPH,Humidity,HourlyPrecipIn,Conditions,Clouds,dailyrainin,SoftwareType,DateUTC
2013-04-13 00:15:00,36.6,30.4,29.49,WSW,247,1.0,1.0,78,0.00,,,0.00,Wunderground v.1.12,2013-04-13 04:15:00,
2013-04-13 00:45:00,37.4,31.2,29.48,West,263,5.0,5.0,78,0.00,,,0.00,Wunderground v.1.12,2013-04-13 04:45:00,
2013-04-13 01:15:00,37.7,31.1,29.49,West,262,0.0,0.0,77,0.00,,,0.00,Wunderground v.1.12,2013-04-13 05:15:00,
2013-04-13 01:45:00,38.2,31.6,29.48,WSW,255,0.0,0.0,77,0.00,,,0.00,Wunderground v.1.12,2013-04-13 05:45:00,
2013-04-13 02:15:00,38.4,31.8,29.48,WSW,244,7.0,7.0,77,0.00,,,0.00,Wunderground v.1.12,2013-04-13 06:15:00,
2013-04-13 02:45:00,38.2,31.0,29.48,West,259,9.0,9.0,75,0.00,,,0.00,Wunderground v.1.12,2013-04-13 06:45:00,
2013-04-13 03:15:00,37.9,30.4,29.48,West,261,10.0,10.0,74,0.00,,,0.00,Wunderground v.1.12,2013-04-13 07:15:00,
2013-04-13 03:45:00,37.6,29.7,29.48,WSW,238,2.0,17.0,73,0.00,,,0.00,Wunderground v.1.12,2013-04-13 07:45:00,
2013-04-13 04:15:00,37.4,29.9,29.49,SW,222,7.0,7.0,74,0.00,,,0.00,Wunderground v.1.12,2013-04-13 08:15:00,
2013-04-13 04:45:00,37.2,30.0,29.49,WSW,258,9.0,9.0,75,0.00,,,0.00,Wunderground v.1.12,2013-04-13 08:45:00,
2013-04-13 05:15:00,37.1,29.9,29.50,WSW,250,9.0,9.0,75,0.00,,,0.00,Wunderground v.1.12,2013-04-13 09:15:00,
2013-04-13 05:45:00,37.1,30.2,29.50,WSW,257,5.0,5.0,76,0.00,,,0.00,Wunderground v.1.12,2013-04-13 09:45:00,
2013-04-13 06:15:00,36.9,30.0,29.51,WSW,253,0.0,0.0,76,0.00,,,0.00,Wunderground v.1.12,2013-04-13 10:15:00,
2013-04-13 07:15:00,37.3,30.4,29.52,West,260,4.0,4.0,76,0.00,,,0.00,Wunderground v.1.12,2013-04-13 11:15:00,
2013-04-13 07:45:00,37.9,31.0,29.52,SW,224,0.0,0.0,76,0.00,,,0.00,Wunderground v.1.12,2013-04-13 11:45:00,
2013-04-13 09:15:00,41.9,33.2,29.52,SW,231,5.0,5.0,71,0.00,,,0.00,Wunderground v.1.12,2013-04-13 13:15:00,
2013-04-13 09:45:00,42.1,33.0,29.52,WSW,253,0.0,0.0,70,0.00,,,0.00,Wunderground v.1.12,2013-04-13 13:45:00,
2013-04-13 10:15:00,42.0,32.9,29.52,SW,222,0.0,0.0,70,0.00,,,0.00,Wunderground v.1.12,2013-04-13 14:15:00,
2013-04-13 10:45:00,42.2,32.8,29.52,WSW,247,0.0,0.0,69,0.00,,,0.00,Wunderground v.1.12,2013-04-13 14:45:00,
2013-04-13 11:15:00,43.5,33.6,29.52,West,264,0.0,0.0,68,0.00,,,0.00,Wunderground v.1.12,2013-04-13 15:15:00,
2013-04-13 11:45:00,44.7,34.4,29.52,WSW,255,1.0,1.0,67,0.00,,,0.00,Wunderground v.1.12,2013-04-13 15:45:00,
2013-04-13 12:15:00,46.9,35.7,29.53,WSW,256,9.0,9.0,65,0.00,,,0.00,Wunderground v.1.12,2013-04-13 16:15:00,
2013-04-13 12:45:00,46.0,34.9,29.53,West,275,11.0,11.0,65,0.00,,,0.00,Wunderground v.1.12,2013-04-13 16:45:00,
2013-04-13 13:15:00,45.2,34.1,29.53,SW,229,2.0,2.0,65,0.00,,,0.00,Wunderground v.1.12,2013-04-13 17:15:00,
2013-04-13 13:45:00,46.0,35.3,29.52,SW,232,7.0,7.0,66,0.00,,,0.00,Wunderground v.1.12,2013-04-13 17:45:00,
2013-04-13 14:15:00,45.1,34.0,29.53,West,278,7.0,7.0,65,0.00,,,0.00,Wunderground v.1.12,2013-04-13 18:15:00,
2013-04-13 14:45:00,45.7,34.6,29.53,WSW,253,9.0,9.0,65,0.00,,,0.00,Wunderground v.1.12,2013-04-13 18:45:00,
2013-04-13 15:15:00,45.3,34.6,29.53,West,266,9.0,9.0,66,0.00,,,0.00,Wunderground v.1.12,2013-04-13 19:15:00,
2013-04-13 15:45:00,46.2,33.1,29.52,WSW,257,11.0,11.0,60,0.00,,,0.00,Wunderground v.1.12,2013-04-13 19:45:00,
2013-04-13 16:15:00,45.7,32.2,29.53,West,263,18.0,18.0,59,0.00,,,0.00,Wunderground v.1.12,2013-04-13 20:15:00,
2013-04-13 16:45:00,44.6,32.4,29.54,WSW,248,7.0,23.0,62,0.00,,,0.00,Wunderground v.1.12,2013-04-13 20:45:00,
2013-04-13 17:15:00,43.9,32.1,29.54,WSW,254,13.0,13.0,63,0.00,,,0.00,Wunderground v.1.12,2013-04-13 21:15:00,
2013-04-13 17:45:00,42.2,31.3,29.55,West,264,12.0,12.0,65,0.00,,,0.00,Wunderground v.1.12,2013-04-13 21:45:00,
2013-04-13 18:15:00,41.6,30.3,29.56,WSW,244,4.0,4.0,64,0.00,,,0.00,Wunderground v.1.12,2013-04-13 22:15:00,
2013-04-13 18:45:00,41.4,30.1,29.58,WSW,247,14.0,14.0,64,0.00,,,0.00,Wunderground v.1.12,2013-04-13 22:45:00,
2013-04-13 19:15:00,40.8,29.6,29.58,West,261,12.0,12.0,64,0.00,,,0.00,Wunderground v.1.12,2013-04-13 23:15:00,
2013-04-13 19:45:00,40.6,29.4,29.59,West,262,13.0,13.0,64,0.00,,,0.00,Wunderground v.1.12,2013-04-13 23:45:00,
2013-04-13 20:15:00,40.1,29.3,29.60,West,265,11.0,11.0,65,0.00,,,0.00,Wunderground v.1.12,2013-04-14 00:15:00,
2013-04-13 20:45:00,39.3,29.3,29.61,WSW,254,0.0,0.0,67,0.00,,,0.00,Wunderground v.1.12,2013-04-14 00:45:00,
2013-04-13 21:15:00,39.3,29.6,29.61,WSW,242,1.0,1.0,68,0.00,,,0.00,Wunderground v.1.12,2013-04-14 01:15:00,
2013-04-13 21:45:00,39.4,29.7,29.62,WSW,257,4.0,4.0,68,0.00,,,0.00,Wunderground v.1.12,2013-04-14 01:45:00,
2013-04-13 22:15:00,39.2,29.5,29.62,WSW,250,8.0,8.0,68,0.00,,,0.00,Wunderground v.1.12,2013-04-14 02:15:00,
2013-04-13 22:45:00,38.9,29.2,29.62,WSW,258,11.0,18.0,68,0.00,,,0.00,Wunderground v.1.12,2013-04-14 02:45:00,
2013-04-13 23:15:00,38.7,29.0,29.63,West,261,9.0,9.0,68,0.00,,,0.00,Wunderground v.1.12,2013-04-14 03:15:00,
2013-04-13 23:45:00,38.9,29.2,29.63,West,260,9.0,9.0,68,0.00,,,0.00,Wunderground v.1.12,2013-04-14 03:45:00,